sensor_id;sensor_type;location;lat;lon;timestamp;temperature;humidity
997;DHT22;487;50.126;8.698;2023-04-25T04:02:54;10.20;99.90
997;DHT22;487;50.126;8.698;2023-04-25T04:05:22;10.10;99.90
997;DHT22;487;50.126;8.698;2023-04-25T04:07:50;10.10;99.90
997;DHT22;487;50.126;8.698;2023-04-25T04:10:18;10.10;99.90
997;DHT22;487;50.126;8.698;2023-04-25T04:12:46;10.10;99.90
997;DHT22;487;50.126;8.698;2023-04-25T04:15:13;10.10;99.90
997;DHT22;487;50.126;8.698;2023-04-25T04:17:41;10.10;99.90
997;DHT22;487;50.126;8.698;2023-04-25T04:20:11;10.10;99.90
997;DHT22;487;50.126;8.698;2023-04-25T04:22:39;10.00;99.90
997;DHT22;487;50.126;8.698;2023-04-25T04:25:07;10.00;99.90
997;DHT22;487;50.126;8.698;2023-04-25T04:27:36;10.00;99.90
997;DHT22;487;50.126;8.698;2023-04-25T04:30:06;10.00;99.90
997;DHT22;487;50.126;8.698;2023-04-25T04:32:34;10.00;99.90
997;DHT22;487;50.126;8.698;2023-04-25T04:37:34;9.80;99.90
997;DHT22;487;50.126;8.698;2023-04-25T04:40:04;9.70;99.90
997;DHT22;487;50.126;8.698;2023-04-25T04:42:32;9.70;99.90
997;DHT22;487;50.126;8.698;2023-04-25T04:45:00;9.70;99.90
997;DHT22;487;50.126;8.698;2023-04-25T04:49:57;9.60;99.90
997;DHT22;487;50.126;8.698;2023-04-25T04:52:25;9.50;99.90
997;DHT22;487;50.126;8.698;2023-04-25T04:54:55;9.60;99.90
997;DHT22;487;50.126;8.698;2023-04-25T04:57:22;9.50;99.90
997;DHT22;487;50.126;8.698;2023-04-25T04:59:50;9.40;99.90
997;DHT22;487;50.126;8.698;2023-04-25T05:02:18;9.30;99.90
997;DHT22;487;50.126;8.698;2023-04-25T05:04:46;9.30;99.90
997;DHT22;487;50.126;8.698;2023-04-25T05:07:14;9.30;99.90
997;DHT22;487;50.126;8.698;2023-04-25T05:09:42;9.30;99.90
997;DHT22;487;50.126;8.698;2023-04-25T05:12:12;9.20;99.90
997;DHT22;487;50.126;8.698;2023-04-25T05:14:40;9.20;99.90
997;DHT22;487;50.126;8.698;2023-04-25T05:17:07;9.20;99.90
997;DHT22;487;50.126;8.698;2023-04-25T05:19:35;9.20;99.90
997;DHT22;487;50.126;8.698;2023-04-25T05:22:03;9.10;99.90
997;DHT22;487;50.126;8.698;2023-04-25T05:24:31;9.10;99.90
997;DHT22;487;50.126;8.698;2023-04-25T05:26:59;9.10;99.90
997;DHT22;487;50.126;8.698;2023-04-25T05:29:28;9.10;99.90
997;DHT22;487;50.126;8.698;2023-04-25T05:31:56;9.20;99.90
997;DHT22;487;50.126;8.698;2023-04-25T05:34:24;9.20;99.90
997;DHT22;487;50.126;8.698;2023-04-25T05:36:52;9.20;99.90
997;DHT22;487;50.126;8.698;2023-04-25T05:39:20;9.30;99.90
997;DHT22;487;50.126;8.698;2023-04-25T05:41:48;9.30;99.90
997;DHT22;487;50.126;8.698;2023-04-25T05:44:16;9.40;99.90
997;DHT22;487;50.126;8.698;2023-04-25T05:46:45;9.40;99.90
997;DHT22;487;50.126;8.698;2023-04-25T05:49:13;9.50;99.90
997;DHT22;487;50.126;8.698;2023-04-25T05:51:44;9.60;99.90
997;DHT22;487;50.126;8.698;2023-04-25T05:54:12;9.60;99.90
997;DHT22;487;50.126;8.698;2023-04-25T05:56:40;9.70;99.90
997;DHT22;487;50.126;8.698;2023-04-25T05:59:08;9.70;99.90
997;DHT22;487;50.126;8.698;2023-04-25T06:01:36;9.80;99.90
997;DHT22;487;50.126;8.698;2023-04-25T06:04:05;9.80;99.90
997;DHT22;487;50.126;8.698;2023-04-25T06:06:33;9.80;99.90
997;DHT22;487;50.126;8.698;2023-04-25T06:11:29;9.90;99.90
997;DHT22;487;50.126;8.698;2023-04-25T06:13:57;9.90;99.90
997;DHT22;487;50.126;8.698;2023-04-25T06:16:25;9.90;99.90
997;DHT22;487;50.126;8.698;2023-04-25T06:18:53;10.00;99.90
997;DHT22;487;50.126;8.698;2023-04-25T06:21:22;10.10;99.90
997;DHT22;487;50.126;8.698;2023-04-25T06:23:50;10.10;99.90
997;DHT22;487;50.126;8.698;2023-04-25T06:26:19;10.10;99.90
997;DHT22;487;50.126;8.698;2023-04-25T06:31:15;10.10;99.90
997;DHT22;487;50.126;8.698;2023-04-25T06:33:43;10.10;99.90
997;DHT22;487;50.126;8.698;2023-04-25T06:36:11;10.10;99.90
997;DHT22;487;50.126;8.698;2023-04-25T06:38:40;10.10;99.90
997;DHT22;487;50.126;8.698;2023-04-25T06:41:08;10.20;99.90
997;DHT22;487;50.126;8.698;2023-04-25T06:43:36;10.20;99.90
997;DHT22;487;50.126;8.698;2023-04-25T06:46:04;10.30;99.90
997;DHT22;487;50.126;8.698;2023-04-25T06:48:32;10.30;99.90
997;DHT22;487;50.126;8.698;2023-04-25T06:50:59;10.40;99.90
997;DHT22;487;50.126;8.698;2023-04-25T06:53:27;10.50;99.90
997;DHT22;487;50.126;8.698;2023-04-25T06:55:56;10.60;99.90
997;DHT22;487;50.126;8.698;2023-04-25T06:58:24;10.60;99.90
997;DHT22;487;50.126;8.698;2023-04-25T07:00:52;10.50;99.90
997;DHT22;487;50.126;8.698;2023-04-25T07:03:20;10.70;99.90
997;DHT22;487;50.126;8.698;2023-04-25T07:05:48;10.80;99.90
997;DHT22;487;50.126;8.698;2023-04-25T07:08:16;10.90;99.90
997;DHT22;487;50.126;8.698;2023-04-25T07:10:44;11.20;99.90
997;DHT22;487;50.126;8.698;2023-04-25T07:13:16;11.00;99.90
997;DHT22;487;50.126;8.698;2023-04-25T07:15:44;11.00;99.90
997;DHT22;487;50.126;8.698;2023-04-25T07:18:14;11.00;99.90
997;DHT22;487;50.126;8.698;2023-04-25T07:20:41;11.00;99.90
997;DHT22;487;50.126;8.698;2023-04-25T07:23:09;11.00;99.90
997;DHT22;487;50.126;8.698;2023-04-25T07:25:37;11.10;99.90
997;DHT22;487;50.126;8.698;2023-04-25T07:28:05;11.00;99.90
997;DHT22;487;50.126;8.698;2023-04-25T07:30:34;11.00;99.90
997;DHT22;487;50.126;8.698;2023-04-25T07:33:03;11.00;99.90
997;DHT22;487;50.126;8.698;2023-04-25T07:35:31;11.00;99.90
997;DHT22;487;50.126;8.698;2023-04-25T07:37:59;11.10;99.90
997;DHT22;487;50.126;8.698;2023-04-25T07:42:55;11.10;99.90
997;DHT22;487;50.126;8.698;2023-04-25T07:45:23;11.00;99.90
997;DHT22;487;50.126;8.698;2023-04-25T07:47:52;11.10;99.90
997;DHT22;487;50.126;8.698;2023-04-25T07:50:20;11.10;99.90
997;DHT22;487;50.126;8.698;2023-04-25T07:52:48;11.10;99.90
997;DHT22;487;50.126;8.698;2023-04-25T07:55:16;11.10;99.90
997;DHT22;487;50.126;8.698;2023-04-25T07:57:43;11.10;99.90
997;DHT22;487;50.126;8.698;2023-04-25T08:00:13;11.20;99.90
997;DHT22;487;50.126;8.698;2023-04-25T08:02:41;11.10;99.90
997;DHT22;487;50.126;8.698;2023-04-25T08:05:10;11.10;99.90
997;DHT22;487;50.126;8.698;2023-04-25T08:07:41;11.20;99.90
997;DHT22;487;50.126;8.698;2023-04-25T08:10:10;11.20;99.90
997;DHT22;487;50.126;8.698;2023-04-25T08:12:38;11.30;99.90
997;DHT22;487;50.126;8.698;2023-04-25T08:15:07;11.30;99.90
997;DHT22;487;50.126;8.698;2023-04-25T08:17:35;11.40;99.90
997;DHT22;487;50.126;8.698;2023-04-25T08:20:04;11.40;99.90
997;DHT22;487;50.126;8.698;2023-04-25T08:22:34;11.40;99.90
997;DHT22;487;50.126;8.698;2023-04-25T08:25:02;11.60;99.90
997;DHT22;487;50.126;8.698;2023-04-25T08:27:30;11.20;99.90
997;DHT22;487;50.126;8.698;2023-04-25T08:29:58;11.20;99.90
997;DHT22;487;50.126;8.698;2023-04-25T08:32:26;11.10;99.90
997;DHT22;487;50.126;8.698;2023-04-25T08:34:56;11.10;99.90
997;DHT22;487;50.126;8.698;2023-04-25T08:37:24;11.10;99.90
997;DHT22;487;50.126;8.698;2023-04-25T08:39:53;11.00;99.90
997;DHT22;487;50.126;8.698;2023-04-25T08:42:24;10.90;99.90
997;DHT22;487;50.126;8.698;2023-04-25T08:44:53;11.00;99.90
997;DHT22;487;50.126;8.698;2023-04-25T08:47:22;10.90;99.90
997;DHT22;487;50.126;8.698;2023-04-25T08:49:52;10.90;99.90
997;DHT22;487;50.126;8.698;2023-04-25T08:52:22;10.90;99.90
997;DHT22;487;50.126;8.698;2023-04-25T08:54:52;11.00;99.90
997;DHT22;487;50.126;8.698;2023-04-25T08:57:21;11.00;99.90
997;DHT22;487;50.126;8.698;2023-04-25T08:59:52;11.10;99.90
997;DHT22;487;50.126;8.698;2023-04-25T09:02:20;11.10;99.90
997;DHT22;487;50.126;8.698;2023-04-25T09:07:16;11.30;99.90
997;DHT22;487;50.126;8.698;2023-04-25T09:09:47;11.50;99.90
997;DHT22;487;50.126;8.698;2023-04-25T09:12:18;11.60;99.90
997;DHT22;487;50.126;8.698;2023-04-25T09:15:02;11.70;99.90
997;DHT22;487;50.126;8.698;2023-04-25T09:17:30;11.60;99.90
997;DHT22;487;50.126;8.698;2023-04-25T09:20:09;11.70;99.90
997;DHT22;487;50.126;8.698;2023-04-25T09:22:38;11.80;99.90
997;DHT22;487;50.126;8.698;2023-04-25T09:25:10;11.90;99.90
997;DHT22;487;50.126;8.698;2023-04-25T09:27:50;11.80;99.90
997;DHT22;487;50.126;8.698;2023-04-25T09:30:28;11.90;99.90
997;DHT22;487;50.126;8.698;2023-04-25T09:32:57;11.90;99.90
997;DHT22;487;50.126;8.698;2023-04-25T09:35:25;11.90;99.90
997;DHT22;487;50.126;8.698;2023-04-25T09:37:54;11.90;99.90
997;DHT22;487;50.126;8.698;2023-04-25T09:40:22;11.90;99.90
997;DHT22;487;50.126;8.698;2023-04-25T09:42:51;11.90;99.90
997;DHT22;487;50.126;8.698;2023-04-25T09:45:19;12.00;99.90
997;DHT22;487;50.126;8.698;2023-04-25T09:47:47;12.10;99.90
997;DHT22;487;50.126;8.698;2023-04-25T09:50:17;12.10;99.90
997;DHT22;487;50.126;8.698;2023-04-25T09:52:45;12.20;99.90
997;DHT22;487;50.126;8.698;2023-04-25T09:55:29;12.20;99.90
997;DHT22;487;50.126;8.698;2023-04-25T09:58:04;12.20;99.90
997;DHT22;487;50.126;8.698;2023-04-25T10:00:33;12.20;99.90
997;DHT22;487;50.126;8.698;2023-04-25T10:03:02;12.20;99.90
997;DHT22;487;50.126;8.698;2023-04-25T10:05:32;12.20;99.90
997;DHT22;487;50.126;8.698;2023-04-25T10:08:03;12.20;99.90
997;DHT22;487;50.126;8.698;2023-04-25T10:10:32;12.30;99.90
997;DHT22;487;50.126;8.698;2023-04-25T10:13:05;12.30;99.90
997;DHT22;487;50.126;8.698;2023-04-25T10:15:35;12.30;99.90
997;DHT22;487;50.126;8.698;2023-04-25T10:18:06;12.20;99.90
997;DHT22;487;50.126;8.698;2023-04-25T10:20:34;12.20;99.90
997;DHT22;487;50.126;8.698;2023-04-25T10:23:06;12.20;99.90
997;DHT22;487;50.126;8.698;2023-04-25T10:25:36;12.20;99.90
997;DHT22;487;50.126;8.698;2023-04-25T10:28:06;12.30;99.90
997;DHT22;487;50.126;8.698;2023-04-25T10:30:34;12.30;99.90
997;DHT22;487;50.126;8.698;2023-04-25T10:33:02;12.20;99.90
997;DHT22;487;50.126;8.698;2023-04-25T10:35:45;12.00;99.90
997;DHT22;487;50.126;8.698;2023-04-25T10:38:14;11.90;99.90
997;DHT22;487;50.126;8.698;2023-04-25T10:40:42;11.80;99.90
997;DHT22;487;50.126;8.698;2023-04-25T10:43:35;11.70;99.90
997;DHT22;487;50.126;8.698;2023-04-25T10:46:16;11.60;99.90
997;DHT22;487;50.126;8.698;2023-04-25T10:48:46;11.50;99.90
997;DHT22;487;50.126;8.698;2023-04-25T10:51:20;11.50;99.90
997;DHT22;487;50.126;8.698;2023-04-25T10:53:59;11.40;99.90
997;DHT22;487;50.126;8.698;2023-04-25T10:56:29;11.40;99.90
997;DHT22;487;50.126;8.698;2023-04-25T10:59:09;11.40;99.90
997;DHT22;487;50.126;8.698;2023-04-25T11:01:40;11.40;99.90
997;DHT22;487;50.126;8.698;2023-04-25T11:04:19;11.30;99.90
997;DHT22;487;50.126;8.698;2023-04-25T11:07:00;11.40;99.90
997;DHT22;487;50.126;8.698;2023-04-25T11:09:34;11.40;99.90
997;DHT22;487;50.126;8.698;2023-04-25T11:12:02;11.60;99.90
997;DHT22;487;50.126;8.698;2023-04-25T11:14:31;11.80;99.90
997;DHT22;487;50.126;8.698;2023-04-25T11:17:00;11.80;99.90
997;DHT22;487;50.126;8.698;2023-04-25T11:19:28;11.90;99.90
997;DHT22;487;50.126;8.698;2023-04-25T11:21:57;11.90;99.90
997;DHT22;487;50.126;8.698;2023-04-25T11:24:27;12.00;99.90
997;DHT22;487;50.126;8.698;2023-04-25T11:26:55;12.00;99.90
997;DHT22;487;50.126;8.698;2023-04-25T11:29:23;12.00;99.90
997;DHT22;487;50.126;8.698;2023-04-25T11:31:52;11.90;99.90
997;DHT22;487;50.126;8.698;2023-04-25T11:34:22;11.80;99.90
997;DHT22;487;50.126;8.698;2023-04-25T11:36:51;11.80;99.90
997;DHT22;487;50.126;8.698;2023-04-25T11:39:20;11.80;99.90
997;DHT22;487;50.126;8.698;2023-04-25T11:41:48;11.80;99.90
997;DHT22;487;50.126;8.698;2023-04-25T11:44:17;11.90;99.90
997;DHT22;487;50.126;8.698;2023-04-25T11:46:46;12.00;99.90
997;DHT22;487;50.126;8.698;2023-04-25T11:49:16;12.20;99.90
997;DHT22;487;50.126;8.698;2023-04-25T11:51:47;12.30;99.90
997;DHT22;487;50.126;8.698;2023-04-25T11:54:15;12.40;99.90
997;DHT22;487;50.126;8.698;2023-04-25T11:56:44;12.50;99.90
997;DHT22;487;50.126;8.698;2023-04-25T11:59:12;12.50;99.90
997;DHT22;487;50.126;8.698;2023-04-25T12:01:48;12.50;99.90
997;DHT22;487;50.126;8.698;2023-04-25T12:04:20;12.50;99.90
997;DHT22;487;50.126;8.698;2023-04-25T12:06:51;15.70;99.90
997;DHT22;487;50.126;8.698;2023-04-25T12:09:20;12.30;99.90
997;DHT22;487;50.126;8.698;2023-04-25T12:11:53;12.20;99.90
997;DHT22;487;50.126;8.698;2023-04-25T12:14:22;12.10;99.90
997;DHT22;487;50.126;8.698;2023-04-25T12:16:51;12.00;99.90
997;DHT22;487;50.126;8.698;2023-04-25T12:21:49;11.90;99.90
997;DHT22;487;50.126;8.698;2023-04-25T12:24:26;11.90;99.90
997;DHT22;487;50.126;8.698;2023-04-25T12:27:01;11.90;99.90
997;DHT22;487;50.126;8.698;2023-04-25T12:29:30;8.30;99.90
997;DHT22;487;50.126;8.698;2023-04-25T12:32:14;11.80;99.90
997;DHT22;487;50.126;8.698;2023-04-25T12:34:43;11.90;99.90
997;DHT22;487;50.126;8.698;2023-04-25T12:37:11;11.90;99.90
997;DHT22;487;50.126;8.698;2023-04-25T12:39:39;11.90;99.90
997;DHT22;487;50.126;8.698;2023-04-25T12:42:07;12.00;99.90
997;DHT22;487;50.126;8.698;2023-04-25T12:44:38;11.90;99.90
997;DHT22;487;50.126;8.698;2023-04-25T12:47:05;12.00;99.90
997;DHT22;487;50.126;8.698;2023-04-25T12:49:34;12.10;99.90
997;DHT22;487;50.126;8.698;2023-04-25T12:52:03;12.20;99.90
997;DHT22;487;50.126;8.698;2023-04-25T12:54:31;12.30;99.90
997;DHT22;487;50.126;8.698;2023-04-25T12:56:59;12.40;99.90
997;DHT22;487;50.126;8.698;2023-04-25T12:59:29;12.50;99.90
997;DHT22;487;50.126;8.698;2023-04-25T13:01:57;12.50;99.90
997;DHT22;487;50.126;8.698;2023-04-25T13:04:25;12.60;99.90
997;DHT22;487;50.126;8.698;2023-04-25T13:06:53;12.60;99.90
997;DHT22;487;50.126;8.698;2023-04-25T13:09:23;12.60;99.90
997;DHT22;487;50.126;8.698;2023-04-25T13:11:52;12.60;99.90
997;DHT22;487;50.126;8.698;2023-04-25T13:14:24;12.60;99.90
997;DHT22;487;50.126;8.698;2023-04-25T13:16:52;12.60;99.90
997;DHT22;487;50.126;8.698;2023-04-25T13:19:20;12.50;99.90
997;DHT22;487;50.126;8.698;2023-04-25T13:21:49;12.60;99.90
997;DHT22;487;50.126;8.698;2023-04-25T13:24:17;12.60;99.90
997;DHT22;487;50.126;8.698;2023-04-25T13:26:46;12.60;99.90
997;DHT22;487;50.126;8.698;2023-04-25T13:29:14;12.70;99.90
997;DHT22;487;50.126;8.698;2023-04-25T13:31:42;12.70;99.90
997;DHT22;487;50.126;8.698;2023-04-25T13:34:10;12.70;99.90
997;DHT22;487;50.126;8.698;2023-04-25T13:36:39;12.80;99.90
997;DHT22;487;50.126;8.698;2023-04-25T13:39:07;12.90;99.90
997;DHT22;487;50.126;8.698;2023-04-25T13:41:39;12.90;99.90
997;DHT22;487;50.126;8.698;2023-04-25T13:44:08;12.70;97.50
997;DHT22;487;50.126;8.698;2023-04-25T13:46:36;12.70;99.30
997;DHT22;487;50.126;8.698;2023-04-25T13:49:07;12.70;99.90
997;DHT22;487;50.126;8.698;2023-04-25T13:51:39;12.70;97.20
997;DHT22;487;50.126;8.698;2023-04-25T13:54:07;12.80;97.30
997;DHT22;487;50.126;8.698;2023-04-25T13:56:35;12.70;97.90
997;DHT22;487;50.126;8.698;2023-04-25T13:59:03;12.70;99.10
997;DHT22;487;50.126;8.698;2023-04-25T14:01:32;12.70;98.30
997;DHT22;487;50.126;8.698;2023-04-25T14:04:01;12.70;99.10
997;DHT22;487;50.126;8.698;2023-04-25T14:06:31;12.70;99.90
997;DHT22;487;50.126;8.698;2023-04-25T14:08:59;12.80;99.90
997;DHT22;487;50.126;8.698;2023-04-25T14:11:28;13.00;99.90
997;DHT22;487;50.126;8.698;2023-04-25T14:13:56;13.10;98.20
997;DHT22;487;50.126;8.698;2023-04-25T14:16:24;13.10;99.90
997;DHT22;487;50.126;8.698;2023-04-25T14:18:53;13.30;95.30
997;DHT22;487;50.126;8.698;2023-04-25T14:21:22;13.30;95.40
997;DHT22;487;50.126;8.698;2023-04-25T14:23:49;13.40;95.80
997;DHT22;487;50.126;8.698;2023-04-25T14:26:18;13.50;94.90
997;DHT22;487;50.126;8.698;2023-04-25T14:31:14;13.20;90.90
997;DHT22;487;50.126;8.698;2023-04-25T14:33:42;13.20;96.50
997;DHT22;487;50.126;8.698;2023-04-25T14:36:11;13.20;91.50
997;DHT22;487;50.126;8.698;2023-04-25T14:38:40;13.30;91.60
997;DHT22;487;50.126;8.698;2023-04-25T14:41:09;13.30;91.00
997;DHT22;487;50.126;8.698;2023-04-25T14:43:37;13.10;85.50
997;DHT22;487;50.126;8.698;2023-04-25T14:46:06;13.00;87.40
997;DHT22;487;50.126;8.698;2023-04-25T14:48:34;13.00;84.90
997;DHT22;487;50.126;8.698;2023-04-25T14:51:02;13.00;84.30
997;DHT22;487;50.126;8.698;2023-04-25T14:53:32;12.90;91.80
997;DHT22;487;50.126;8.698;2023-04-25T14:56:00;12.70;82.50
997;DHT22;487;50.126;8.698;2023-04-25T14:58:28;12.70;83.70
997;DHT22;487;50.126;8.698;2023-04-25T15:03:24;12.70;83.60
997;DHT22;487;50.126;8.698;2023-04-25T15:05:52;12.60;85.40
997;DHT22;487;50.126;8.698;2023-04-25T15:08:21;12.60;86.00
997;DHT22;487;50.126;8.698;2023-04-25T15:10:50;12.60;88.70
997;DHT22;487;50.126;8.698;2023-04-25T15:13:18;12.70;89.90
997;DHT22;487;50.126;8.698;2023-04-25T15:15:46;12.60;90.40
997;DHT22;487;50.126;8.698;2023-04-25T15:18:19;12.60;90.40
997;DHT22;487;50.126;8.698;2023-04-25T15:20:48;12.60;89.00
997;DHT22;487;50.126;8.698;2023-04-25T15:23:16;12.60;85.90
997;DHT22;487;50.126;8.698;2023-04-25T15:25:44;12.60;85.40
997;DHT22;487;50.126;8.698;2023-04-25T15:28:14;12.50;84.50
997;DHT22;487;50.126;8.698;2023-04-25T15:30:42;12.30;84.50
997;DHT22;487;50.126;8.698;2023-04-25T15:33:10;12.70;85.60
997;DHT22;487;50.126;8.698;2023-04-25T15:35:38;12.80;89.20
997;DHT22;487;50.126;8.698;2023-04-25T15:38:07;13.00;90.30
997;DHT22;487;50.126;8.698;2023-04-25T15:40:37;13.30;90.70
997;DHT22;487;50.126;8.698;2023-04-25T15:43:04;13.50;91.30
997;DHT22;487;50.126;8.698;2023-04-25T15:45:34;13.80;91.10
997;DHT22;487;50.126;8.698;2023-04-25T15:48:04;14.00;89.50
997;DHT22;487;50.126;8.698;2023-04-25T15:50:32;14.10;90.80
997;DHT22;487;50.126;8.698;2023-04-25T15:53:00;14.00;90.50
997;DHT22;487;50.126;8.698;2023-04-25T15:55:28;13.80;90.00
997;DHT22;487;50.126;8.698;2023-04-25T15:57:56;13.80;89.30
997;DHT22;487;50.126;8.698;2023-04-25T16:00:24;13.80;88.70
997;DHT22;487;50.126;8.698;2023-04-25T16:02:53;14.00;89.90
997;DHT22;487;50.126;8.698;2023-04-25T16:05:22;14.20;87.50
997;DHT22;487;50.126;8.698;2023-04-25T16:07:50;14.40;78.40
997;DHT22;487;50.126;8.698;2023-04-25T16:10:19;14.40;79.00
997;DHT22;487;50.126;8.698;2023-04-25T16:12:48;14.70;74.20
997;DHT22;487;50.126;8.698;2023-04-25T16:15:16;14.90;73.50
997;DHT22;487;50.126;8.698;2023-04-25T16:17:44;15.10;73.20
997;DHT22;487;50.126;8.698;2023-04-25T16:20:14;15.20;68.10
997;DHT22;487;50.126;8.698;2023-04-25T16:22:42;15.20;68.70
997;DHT22;487;50.126;8.698;2023-04-25T16:25:10;15.30;65.90
997;DHT22;487;50.126;8.698;2023-04-25T16:27:38;15.30;67.10
997;DHT22;487;50.126;8.698;2023-04-25T16:30:08;15.50;65.20
997;DHT22;487;50.126;8.698;2023-04-25T16:32:37;15.80;63.10
997;DHT22;487;50.126;8.698;2023-04-25T16:35:08;15.80;60.20
997;DHT22;487;50.126;8.698;2023-04-25T16:37:37;15.30;61.30
997;DHT22;487;50.126;8.698;2023-04-25T16:42:35;14.90;63.40
997;DHT22;487;50.126;8.698;2023-04-25T16:45:04;14.80;65.80
997;DHT22;487;50.126;8.698;2023-04-25T16:47:32;14.60;67.00
997;DHT22;487;50.126;8.698;2023-04-25T16:50:00;14.60;78.30
997;DHT22;487;50.126;8.698;2023-04-25T16:52:28;14.30;66.90
997;DHT22;487;50.126;8.698;2023-04-25T16:54:57;14.10;66.20
997;DHT22;487;50.126;8.698;2023-04-25T16:57:25;13.90;67.80
997;DHT22;487;50.126;8.698;2023-04-25T16:59:52;13.80;65.80
997;DHT22;487;50.126;8.698;2023-04-25T17:02:20;13.70;68.00
997;DHT22;487;50.126;8.698;2023-04-25T17:04:49;13.70;70.20
997;DHT22;487;50.126;8.698;2023-04-25T17:07:17;13.60;69.90
997;DHT22;487;50.126;8.698;2023-04-25T17:09:49;13.60;70.90
997;DHT22;487;50.126;8.698;2023-04-25T17:12:19;13.60;70.50
997;DHT22;487;50.126;8.698;2023-04-25T17:14:48;13.60;72.10
997;DHT22;487;50.126;8.698;2023-04-25T17:17:16;13.80;73.10
997;DHT22;487;50.126;8.698;2023-04-25T17:19:44;14.00;73.00
997;DHT22;487;50.126;8.698;2023-04-25T17:22:13;14.20;71.30
997;DHT22;487;50.126;8.698;2023-04-25T17:24:41;14.50;71.10
997;DHT22;487;50.126;8.698;2023-04-25T17:27:09;14.50;65.70
997;DHT22;487;50.126;8.698;2023-04-25T17:29:39;14.40;66.90
997;DHT22;487;50.126;8.698;2023-04-25T17:32:06;14.60;65.50
997;DHT22;487;50.126;8.698;2023-04-25T17:34:34;14.80;66.30
997;DHT22;487;50.126;8.698;2023-04-25T17:37:03;14.90;65.60
997;DHT22;487;50.126;8.698;2023-04-25T17:39:31;15.00;64.70
997;DHT22;487;50.126;8.698;2023-04-25T17:41:59;15.00;66.20
997;DHT22;487;50.126;8.698;2023-04-25T17:44:27;15.20;66.80
997;DHT22;487;50.126;8.698;2023-04-25T17:46:57;15.40;69.00
997;DHT22;487;50.126;8.698;2023-04-25T17:49:27;15.60;66.10
997;DHT22;487;50.126;8.698;2023-04-25T17:51:57;15.40;61.90
997;DHT22;487;50.126;8.698;2023-04-25T17:54:25;15.30;59.40
997;DHT22;487;50.126;8.698;2023-04-25T17:56:53;15.20;57.50
997;DHT22;487;50.126;8.698;2023-04-25T17:59:21;15.00;55.40
997;DHT22;487;50.126;8.698;2023-04-25T18:01:49;14.60;53.20
997;DHT22;487;50.126;8.698;2023-04-25T18:04:19;14.50;54.50
997;DHT22;487;50.126;8.698;2023-04-25T18:06:47;14.30;53.70
997;DHT22;487;50.126;8.698;2023-04-25T18:09:15;14.10;53.80
997;DHT22;487;50.126;8.698;2023-04-25T18:11:44;13.80;54.20
997;DHT22;487;50.126;8.698;2023-04-25T18:14:13;13.60;55.10
997;DHT22;487;50.126;8.698;2023-04-25T18:16:42;13.40;56.90
997;DHT22;487;50.126;8.698;2023-04-25T18:19:10;13.10;58.20
997;DHT22;487;50.126;8.698;2023-04-25T18:21:42;13.00;59.00
997;DHT22;487;50.126;8.698;2023-04-25T18:24:11;13.00;70.30
997;DHT22;487;50.126;8.698;2023-04-25T18:26:39;12.90;61.00
997;DHT22;487;50.126;8.698;2023-04-25T18:29:08;12.80;62.00
997;DHT22;487;50.126;8.698;2023-04-25T18:31:47;12.70;62.80
997;DHT22;487;50.126;8.698;2023-04-25T18:34:15;12.60;63.70
997;DHT22;487;50.126;8.698;2023-04-25T18:36:47;12.50;64.10
997;DHT22;487;50.126;8.698;2023-04-25T18:39:15;12.40;64.30
997;DHT22;487;50.126;8.698;2023-04-25T18:41:48;12.40;65.40
997;DHT22;487;50.126;8.698;2023-04-25T18:44:25;12.30;65.80
997;DHT22;487;50.126;8.698;2023-04-25T18:46:53;12.10;66.10
997;DHT22;487;50.126;8.698;2023-04-25T18:49:21;12.10;67.20
997;DHT22;487;50.126;8.698;2023-04-25T18:51:50;12.00;68.00
997;DHT22;487;50.126;8.698;2023-04-25T18:54:21;12.00;69.10
997;DHT22;487;50.126;8.698;2023-04-25T18:56:49;11.90;70.70
997;DHT22;487;50.126;8.698;2023-04-25T18:59:17;11.90;68.20
997;DHT22;487;50.126;8.698;2023-04-25T19:01:45;11.70;67.40
997;DHT22;487;50.126;8.698;2023-04-25T19:04:14;11.60;68.30
997;DHT22;487;50.126;8.698;2023-04-25T19:06:42;11.60;68.60
997;DHT22;487;50.126;8.698;2023-04-25T19:09:13;11.50;68.90
997;DHT22;487;50.126;8.698;2023-04-25T19:11:40;11.40;69.50
997;DHT22;487;50.126;8.698;2023-04-25T19:14:09;11.40;70.50
997;DHT22;487;50.126;8.698;2023-04-25T19:16:37;11.40;70.70
997;DHT22;487;50.126;8.698;2023-04-25T19:19:05;11.40;72.30
997;DHT22;487;50.126;8.698;2023-04-25T19:21:34;11.30;69.60
997;DHT22;487;50.126;8.698;2023-04-25T19:24:03;11.30;70.70
997;DHT22;487;50.126;8.698;2023-04-25T19:26:33;11.30;72.30
997;DHT22;487;50.126;8.698;2023-04-25T19:29:03;11.30;71.60
997;DHT22;487;50.126;8.698;2023-04-25T19:31:32;11.30;71.80
997;DHT22;487;50.126;8.698;2023-04-25T19:34:00;11.20;71.50
997;DHT22;487;50.126;8.698;2023-04-25T19:36:28;11.20;71.40
997;DHT22;487;50.126;8.698;2023-04-25T19:38:56;11.20;71.60
997;DHT22;487;50.126;8.698;2023-04-25T19:41:29;11.20;70.80
997;DHT22;487;50.126;8.698;2023-04-25T19:43:58;11.10;73.20
997;DHT22;487;50.126;8.698;2023-04-25T19:46:27;11.10;71.70
997;DHT22;487;50.126;8.698;2023-04-25T19:48:57;11.10;71.20
997;DHT22;487;50.126;8.698;2023-04-25T19:51:25;10.90;70.10
997;DHT22;487;50.126;8.698;2023-04-25T19:53:54;10.90;69.30
997;DHT22;487;50.126;8.698;2023-04-25T19:56:22;10.90;70.60
997;DHT22;487;50.126;8.698;2023-04-25T19:58:50;10.90;70.20
997;DHT22;487;50.126;8.698;2023-04-25T20:01:20;10.80;69.30
997;DHT22;487;50.126;8.698;2023-04-25T20:03:48;10.80;69.20
997;DHT22;487;50.126;8.698;2023-04-25T20:06:18;10.80;67.30
997;DHT22;487;50.126;8.698;2023-04-25T20:08:46;10.70;65.50
997;DHT22;487;50.126;8.698;2023-04-25T20:13:48;10.70;65.30
997;DHT22;487;50.126;8.698;2023-04-25T20:16:17;10.60;65.00
997;DHT22;487;50.126;8.698;2023-04-25T20:21:19;10.60;65.40
997;DHT22;487;50.126;8.698;2023-04-25T20:23:47;10.60;65.40
997;DHT22;487;50.126;8.698;2023-04-25T20:26:14;10.50;64.80
997;DHT22;487;50.126;8.698;2023-04-25T20:28:42;10.60;65.20
997;DHT22;487;50.126;8.698;2023-04-25T20:31:10;10.50;65.00
997;DHT22;487;50.126;8.698;2023-04-25T20:33:38;10.50;64.90
997;DHT22;487;50.126;8.698;2023-04-25T20:36:10;10.50;65.80
997;DHT22;487;50.126;8.698;2023-04-25T20:38:40;10.40;66.00
997;DHT22;487;50.126;8.698;2023-04-25T20:41:08;10.40;66.90
997;DHT22;487;50.126;8.698;2023-04-25T20:43:37;10.40;68.70
997;DHT22;487;50.126;8.698;2023-04-25T20:46:05;10.40;68.60
997;DHT22;487;50.126;8.698;2023-04-25T20:48:33;10.40;69.00
997;DHT22;487;50.126;8.698;2023-04-25T20:51:01;10.40;69.70
997;DHT22;487;50.126;8.698;2023-04-25T20:53:31;10.40;71.00
997;DHT22;487;50.126;8.698;2023-04-25T20:56:00;10.40;72.10
997;DHT22;487;50.126;8.698;2023-04-25T20:58:28;10.40;72.50
997;DHT22;487;50.126;8.698;2023-04-25T21:00:56;10.30;72.50
997;DHT22;487;50.126;8.698;2023-04-25T21:03:25;10.30;72.80
997;DHT22;487;50.126;8.698;2023-04-25T21:05:53;10.30;72.70
997;DHT22;487;50.126;8.698;2023-04-25T21:08:20;10.30;74.40
997;DHT22;487;50.126;8.698;2023-04-25T21:10:51;10.20;73.50
997;DHT22;487;50.126;8.698;2023-04-25T21:13:19;10.20;73.40
997;DHT22;487;50.126;8.698;2023-04-25T21:15:47;10.20;73.90
997;DHT22;487;50.126;8.698;2023-04-25T21:18:15;10.10;74.50
997;DHT22;487;50.126;8.698;2023-04-25T21:20:43;10.10;75.20